Time;durP1;ratioP1;P1;durP2;ratioP2;P2;SDS_P1;SDS_P2;PMS_P1;PMS_P2;Temp;Humidity;BMP_temperature;BMP_pressure;BME280_temperature;BME280_humidity;BME280_pressure;Samples;Min_cycle;Max_cycle;Signal;HPM_P1;HPM_P2
2023/05/15 00:00:28;;;;;;;13.20;6.63;;;11.20;99.90;;;;;;5114375;27;20188;-73
2023/05/15 00:02:54;;;;;;;7.97;6.20;;;11.30;99.90;;;;;;5096950;27;20213;-73
2023/05/15 00:05:20;;;;;;;6.73;5.97;;;11.20;99.90;;;;;;5114336;27;20608;-73
2023/05/15 00:07:45;;;;;;;7.77;6.43;;;11.20;99.90;;;;;;5096907;27;20423;-73
2023/05/15 00:10:11;;;;;;;7.60;6.27;;;11.10;99.90;;;;;;5132489;27;20464;-73
2023/05/15 00:12:36;;;;;;;7.10;6.10;;;11.10;99.90;;;;;;5132403;27;20931;-73
2023/05/15 00:15:02;;;;;;;10.50;7.30;;;11.10;99.90;;;;;;5132494;27;20278;-72
2023/05/15 00:17:28;;;;;;;8.13;6.20;;;11.10;99.90;;;;;;5132289;27;20210;-73
2023/05/15 00:19:56;;;;;;;6.23;5.63;;;11.00;99.90;;;;;;5132432;27;20433;-73
2023/05/15 00:22:22;;;;;;;6.17;5.63;;;11.10;99.90;;;;;;5096981;27;20190;-73
2023/05/15 00:24:48;;;;;;;8.17;5.87;;;11.10;99.90;;;;;;5132253;27;20424;-73
2023/05/15 00:27:13;;;;;;;6.23;5.63;;;11.10;99.90;;;;;;5113651;27;20444;-73
2023/05/15 00:29:39;;;;;;;8.00;6.30;;;11.10;99.90;;;;;;5132180;27;20217;-73
2023/05/15 00:32:05;;;;;;;8.00;6.43;;;11.20;99.90;;;;;;5132192;27;20185;-73
2023/05/15 00:34:30;;;;;;;9.83;6.20;;;11.10;99.90;;;;;;5131198;27;20183;-73
2023/05/15 00:36:56;;;;;;;10.27;7.00;;;11.10;99.90;;;;;;5132040;27;20438;-73
2023/05/15 00:39:22;;;;;;;11.10;7.27;;;11.10;99.90;;;;;;5132088;27;20211;-74
2023/05/15 00:41:48;;;;;;;6.97;6.07;;;11.10;99.90;;;;;;5113204;27;20218;-74
2023/05/15 00:44:16;;;;;;;13.43;6.60;;;11.10;99.90;;;;;;5131998;27;20187;-74
2023/05/15 00:46:44;;;;;;;13.83;7.00;;;11.00;99.90;;;;;;5131780;27;20442;-73
2023/05/15 00:49:12;;;;;;;7.13;6.43;;;10.90;99.90;;;;;;5131907;27;20582;-73
2023/05/15 00:51:41;;;;;;;8.47;6.67;;;11.10;99.90;;;;;;5131751;27;20442;-73
2023/05/15 00:54:08;;;;;;;8.00;6.20;;;11.10;99.90;;;;;;5096774;27;20489;-73
2023/05/15 00:56:34;;;;;;;9.50;6.00;;;11.10;99.90;;;;;;5131724;27;20844;-73
2023/05/15 00:59:02;;;;;;;8.53;6.53;;;11.10;99.90;;;;;;5131639;27;20424;-72
2023/05/15 01:01:33;;;;;;;10.33;7.37;;;11.10;99.90;;;;;;5131757;27;20422;-73
2023/05/15 01:04:01;;;;;;;7.47;6.60;;;11.10;99.90;;;;;;5112890;27;20489;-73
2023/05/15 01:06:28;;;;;;;7.50;6.30;;;11.20;99.90;;;;;;5112879;27;20811;-73
2023/05/15 01:08:56;;;;;;;8.47;6.37;;;11.20;99.90;;;;;;5131457;27;20467;-73
2023/05/15 01:11:26;;;;;;;8.53;5.90;;;11.20;99.90;;;;;;5131539;27;20420;-74
2023/05/15 01:13:51;;;;;;;7.83;6.07;;;11.20;99.90;;;;;;5112966;27;20425;-73
2023/05/15 01:16:20;;;;;;;7.70;6.37;;;11.20;99.90;;;;;;5131797;27;20442;-72
2023/05/15 01:18:45;;;;;;;7.67;6.53;;;11.30;99.90;;;;;;5131537;27;20655;-73
2023/05/15 01:21:33;;;;;;;6.17;5.50;;;11.30;99.90;;;;;;5113128;27;20474;-73
2023/05/15 01:24:31;;;;;;;6.77;5.77;;;11.30;99.90;;;;;;5131633;27;20720;-73
2023/05/15 01:27:13;;;;;;;6.90;5.90;;;11.40;99.90;;;;;;5131810;27;20457;-73
2023/05/15 01:29:58;;;;;;;7.73;6.73;;;11.40;99.90;;;;;;5112557;27;20459;-73
2023/05/15 01:32:33;;;;;;;6.00;5.40;;;11.40;99.90;;;;;;5112526;27;20429;-73
2023/05/15 01:35:26;;;;;;;6.97;6.27;;;11.40;99.90;;;;;;5131103;27;20483;-73
2023/05/15 01:38:17;;;;;;;9.13;5.90;;;11.40;99.90;;;;;;5130816;27;20413;-73
2023/05/15 01:40:46;;;;;;;9.70;5.57;;;11.40;99.90;;;;;;5130575;27;20424;-73
2023/05/15 01:43:17;;;;;;;6.60;5.93;;;11.40;99.90;;;;;;5130768;27;20437;-73
2023/05/15 01:45:44;;;;;;;8.07;6.40;;;11.40;99.90;;;;;;5094982;27;20498;-74
2023/05/15 01:48:12;;;;;;;6.53;5.70;;;11.40;99.90;;;;;;5130478;27;20421;-73
2023/05/15 01:50:39;;;;;;;6.27;5.53;;;11.40;99.90;;;;;;5094633;27;20465;-73
2023/05/15 01:53:09;;;;;;;9.53;6.50;;;11.50;99.90;;;;;;5095312;27;20531;-73
2023/05/15 01:55:36;;;;;;;6.50;5.70;;;11.50;99.90;;;;;;5111797;27;20437;-73
2023/05/15 01:58:03;;;;;;;5.97;5.37;;;11.50;99.90;;;;;;5130444;27;20523;-73
2023/05/15 02:00:31;;;;;;;5.70;5.10;;;11.60;99.90;;;;;;5130637;27;21098;-73
2023/05/15 02:02:57;;;;;;;7.43;4.73;;;11.60;99.90;;;;;;5130443;27;20413;-73
2023/05/15 02:05:25;;;;;;;6.30;5.03;;;11.60;99.90;;;;;;5130292;27;21019;-73
2023/05/15 02:07:51;;;;;;;6.00;5.40;;;11.60;99.90;;;;;;5130359;27;20425;-72
2023/05/15 02:10:18;;;;;;;9.40;6.13;;;11.50;99.90;;;;;;5130515;27;20480;-72
2023/05/15 02:12:44;;;;;;;6.20;5.57;;;11.50;99.90;;;;;;5130331;27;20412;-72
2023/05/15 02:15:10;;;;;;;6.57;5.87;;;11.60;99.90;;;;;;5130201;27;20412;-73
2023/05/15 02:17:36;;;;;;;9.83;6.93;;;11.50;99.90;;;;;;5111553;27;20467;-73
2023/05/15 02:20:04;;;;;;;6.53;5.87;;;11.50;99.90;;;;;;5111899;27;20992;-73
2023/05/15 02:22:30;;;;;;;9.20;5.23;;;11.60;99.90;;;;;;5130182;27;20188;-73
2023/05/15 02:24:56;;;;;;;6.30;5.00;;;11.60;99.90;;;;;;5130111;27;20422;-73
2023/05/15 02:27:27;;;;;;;7.00;5.80;;;11.60;99.90;;;;;;5129911;27;20210;-73
2023/05/15 02:30:19;;;;;;;6.43;4.70;;;11.70;99.90;;;;;;5129981;27;20211;-73
2023/05/15 02:33:19;;;;;;;6.50;5.50;;;11.70;99.90;;;;;;5111328;27;20843;-73
2023/05/15 02:35:57;;;;;;;5.67;5.00;;;11.60;99.90;;;;;;5129899;27;20822;-73
2023/05/15 02:38:29;;;;;;;6.73;5.77;;;11.60;99.90;;;;;;5129745;27;20428;-73
2023/05/15 02:40:56;;;;;;;5.80;5.30;;;11.60;99.90;;;;;;5110908;27;20427;-73
2023/05/15 02:43:22;;;;;;;6.07;5.13;;;11.60;99.90;;;;;;5111218;27;20420;-73
2023/05/15 02:45:49;;;;;;;5.90;5.30;;;11.50;99.90;;;;;;5111141;27;20927;-73
2023/05/15 02:48:16;;;;;;;9.07;6.20;;;11.60;99.90;;;;;;5111117;27;20287;-73
2023/05/15 02:50:42;;;;;;;6.33;5.20;;;11.60;99.90;;;;;;5129769;27;20904;-74
2023/05/15 02:53:08;;;;;;;14.77;6.27;;;11.50;99.90;;;;;;5111238;27;20472;-74
2023/05/15 02:55:34;;;;;;;8.03;6.30;;;11.60;99.90;;;;;;5094255;27;20552;-73
2023/05/15 02:58:02;;;;;;;7.90;5.03;;;11.60;99.90;;;;;;5129041;27;20488;-73
2023/05/15 03:00:28;;;;;;;6.83;5.50;;;11.60;99.90;;;;;;5129682;27;21274;-73
2023/05/15 03:02:53;;;;;;;7.07;5.43;;;11.60;99.90;;;;;;5129630;27;20406;-73
2023/05/15 03:05:19;;;;;;;5.23;4.73;;;11.60;99.90;;;;;;5110680;27;20651;-73
2023/05/15 03:07:45;;;;;;;6.73;5.57;;;11.50;99.90;;;;;;5129388;28;20653;-73
2023/05/15 03:10:10;;;;;;;5.97;5.43;;;11.50;99.90;;;;;;5129300;28;20470;-73
2023/05/15 03:12:37;;;;;;;6.27;5.03;;;11.50;99.90;;;;;;5129540;28;20189;-73
2023/05/15 03:15:03;;;;;;;7.00;5.33;;;11.50;99.90;;;;;;5129649;28;20180;-73
2023/05/15 03:17:29;;;;;;;7.40;6.23;;;11.50;99.90;;;;;;5129631;27;20428;-73
2023/05/15 03:19:55;;;;;;;5.67;5.17;;;11.50;99.90;;;;;;5130020;27;20782;-73
2023/05/15 03:22:20;;;;;;;7.40;5.47;;;11.50;99.90;;;;;;5130146;27;20194;-73
2023/05/15 03:24:46;;;;;;;5.80;5.20;;;11.50;99.90;;;;;;5130013;28;20913;-73
2023/05/15 03:27:12;;;;;;;7.80;5.30;;;11.40;99.90;;;;;;5130513;27;20223;-73
2023/05/15 03:29:37;;;;;;;5.63;5.07;;;11.40;99.90;;;;;;5111347;28;20212;-73
2023/05/15 03:32:03;;;;;;;5.97;5.37;;;11.40;99.90;;;;;;5111587;28;20186;-73
2023/05/15 03:34:29;;;;;;;6.20;4.80;;;11.30;99.90;;;;;;5129903;28;20232;-74
2023/05/15 03:36:54;;;;;;;5.80;5.20;;;11.40;99.90;;;;;;5111532;28;20598;-73
2023/05/15 03:39:20;;;;;;;5.57;5.00;;;11.40;99.90;;;;;;5129998;28;20191;-73
2023/05/15 03:41:45;;;;;;;4.90;4.50;;;11.40;99.90;;;;;;5094104;28;20206;-74
2023/05/15 03:44:11;;;;;;;5.30;4.80;;;11.40;99.90;;;;;;5129631;28;20190;-74
2023/05/15 03:46:37;;;;;;;5.70;5.20;;;11.40;99.90;;;;;;5129344;27;20690;-72
2023/05/15 03:49:02;;;;;;;6.10;5.50;;;11.40;99.90;;;;;;5129286;28;20244;-73
2023/05/15 03:51:28;;;;;;;6.23;5.37;;;11.30;99.90;;;;;;5129243;28;20748;-72
2023/05/15 03:53:53;;;;;;;6.20;5.13;;;11.30;99.90;;;;;;5128933;28;20191;-73
2023/05/15 03:56:20;;;;;;;8.63;5.73;;;11.30;99.90;;;;;;5129079;27;20687;-72
2023/05/15 03:58:45;;;;;;;5.20;4.70;;;11.30;99.90;;;;;;5129247;28;20172;-73
2023/05/15 04:01:11;;;;;;;6.40;5.60;;;11.30;99.90;;;;;;5131035;27;21074;-73
2023/05/15 04:03:36;;;;;;;7.13;5.30;;;11.30;99.90;;;;;;5111497;28;20193;-73
2023/05/15 04:06:02;;;;;;;7.13;5.10;;;11.30;99.90;;;;;;5130454;27;20202;-73
2023/05/15 04:08:28;;;;;;;6.67;5.43;;;11.30;99.90;;;;;;5129698;28;20532;-73
2023/05/15 04:10:53;;;;;;;5.30;4.60;;;11.30;99.90;;;;;;5133098;27;20214;-73
2023/05/15 04:13:19;;;;;;;5.90;5.30;;;11.40;99.90;;;;;;5097701;27;20181;-73
2023/05/15 04:15:45;;;;;;;5.07;4.60;;;11.40;99.90;;;;;;5097348;27;20207;-73
2023/05/15 04:18:10;;;;;;;5.97;5.03;;;11.40;99.90;;;;;;5133036;27;20641;-73
2023/05/15 04:20:36;;;;;;;7.13;4.87;;;11.40;99.90;;;;;;5114570;27;20424;-73
2023/05/15 04:23:04;;;;;;;5.40;4.90;;;11.50;99.90;;;;;;5133044;27;20185;-73
2023/05/15 04:25:30;;;;;;;6.30;5.07;;;11.40;99.90;;;;;;5132833;27;20206;-73
2023/05/15 04:27:56;;;;;;;4.80;4.30;;;11.40;99.90;;;;;;5133133;27;21023;-73
2023/05/15 04:30:21;;;;;;;4.40;4.00;;;11.40;99.90;;;;;;5133076;27;20567;-73
2023/05/15 04:32:47;;;;;;;6.30;5.70;;;11.50;99.90;;;;;;5114273;27;20267;-73
2023/05/15 04:35:14;;;;;;;4.60;4.20;;;11.50;99.90;;;;;;5132745;27;20185;-73
2023/05/15 04:37:41;;;;;;;7.50;4.80;;;11.50;99.90;;;;;;5114304;27;20416;-72
2023/05/15 04:40:08;;;;;;;5.13;4.60;;;11.50;99.90;;;;;;5113560;27;20440;-72
2023/05/15 04:42:34;;;;;;;6.13;4.70;;;11.50;99.90;;;;;;5113486;27;20483;-73
2023/05/15 04:45:01;;;;;;;5.90;4.43;;;11.60;99.90;;;;;;5132307;27;20939;-73
2023/05/15 04:47:27;;;;;;;5.30;4.80;;;11.60;99.90;;;;;;5113524;27;20542;-73
2023/05/15 04:49:52;;;;;;;8.03;5.37;;;11.50;99.90;;;;;;5131487;27;20558;-73
2023/05/15 04:52:18;;;;;;;5.83;5.00;;;11.60;99.90;;;;;;5130795;27;20193;-73
2023/05/15 04:54:44;;;;;;;5.87;4.50;;;11.70;99.90;;;;;;5130505;27;20271;-72
2023/05/15 04:57:09;;;;;;;4.70;4.30;;;11.70;99.90;;;;;;5130430;27;20200;-72
2023/05/15 04:59:35;;;;;;;6.40;4.40;;;11.80;99.90;;;;;;5130669;27;20186;-72
2023/05/15 05:02:01;;;;;;;5.13;4.70;;;11.80;99.90;;;;;;5130713;27;20733;-73
2023/05/15 05:04:27;;;;;;;5.37;4.87;;;11.90;99.90;;;;;;5130667;27;20270;-72
2023/05/15 05:06:52;;;;;;;5.07;4.53;;;11.90;99.90;;;;;;5130611;27;20576;-72
2023/05/15 05:09:19;;;;;;;6.07;4.37;;;11.80;99.90;;;;;;5130641;27;20281;-73
2023/05/15 05:11:46;;;;;;;7.80;5.17;;;11.80;99.90;;;;;;5111665;27;20187;-73
2023/05/15 05:14:13;;;;;;;4.70;4.20;;;11.90;99.90;;;;;;5130554;27;20497;-72
2023/05/15 05:16:39;;;;;;;6.30;5.00;;;12.00;99.90;;;;;;5111816;27;20451;-73
2023/05/15 05:19:05;;;;;;;6.13;4.90;;;12.00;99.90;;;;;;5130584;27;20520;-72
2023/05/15 05:21:31;;;;;;;6.57;5.07;;;12.20;99.90;;;;;;5129806;27;20918;-72
2023/05/15 05:23:57;;;;;;;4.60;4.20;;;12.30;99.90;;;;;;5112071;27;20499;-72
2023/05/15 05:26:24;;;;;;;7.80;4.43;;;12.30;99.90;;;;;;5130852;27;21025;-72
2023/05/15 05:28:49;;;;;;;4.70;4.30;;;12.50;99.90;;;;;;5111906;27;20429;-73
2023/05/15 05:31:15;;;;;;;5.40;4.47;;;12.60;99.90;;;;;;5130531;27;20912;-72
2023/05/15 05:33:41;;;;;;;4.40;3.73;;;12.70;99.90;;;;;;5095156;27;20184;-73
2023/05/15 05:36:06;;;;;;;5.53;4.97;;;12.70;99.90;;;;;;5112062;27;20748;-73
2023/05/15 05:38:32;;;;;;;4.93;4.43;;;12.80;99.90;;;;;;5130217;27;20416;-72
2023/05/15 05:41:00;;;;;;;4.90;4.40;;;12.90;99.90;;;;;;5111500;27;20223;-73
2023/05/15 05:43:26;;;;;;;5.87;4.37;;;12.90;99.90;;;;;;5112166;27;20922;-72
2023/05/15 05:45:52;;;;;;;5.17;4.17;;;13.00;99.90;;;;;;5111414;27;20889;-73
2023/05/15 05:48:17;;;;;;;7.00;4.87;;;13.00;99.90;;;;;;5130183;27;20422;-73
2023/05/15 05:50:43;;;;;;;4.47;4.13;;;13.10;99.90;;;;;;5129962;27;20485;-73
2023/05/15 05:53:09;;;;;;;5.40;4.23;;;13.20;99.90;;;;;;5130015;27;20188;-73
2023/05/15 05:55:35;;;;;;;4.17;3.77;;;13.20;99.90;;;;;;5129894;27;20304;-73
2023/05/15 05:58:00;;;;;;;5.53;4.70;;;13.30;99.90;;;;;;5129927;27;20180;-74
2023/05/15 06:00:26;;;;;;;4.87;4.43;;;13.30;99.90;;;;;;5129786;27;20188;-73
2023/05/15 06:02:58;;;;;;;5.00;4.20;;;13.30;99.90;;;;;;5129811;27;20649;-73
2023/05/15 06:05:26;;;;;;;4.70;4.37;;;13.30;99.90;;;;;;5129372;27;20177;-73
2023/05/15 06:07:53;;;;;;;4.47;4.07;;;13.30;99.90;;;;;;5129043;27;20421;-73
2023/05/15 06:10:19;;;;;;;5.00;4.53;;;13.40;99.90;;;;;;5128825;27;20466;-72
2023/05/15 06:12:45;;;;;;;6.23;4.17;;;13.40;99.90;;;;;;5128907;27;20437;-72
2023/05/15 06:15:11;;;;;;;11.70;3.87;;;13.50;99.90;;;;;;5128939;27;20478;-72
2023/05/15 06:17:37;;;;;;;6.13;4.80;;;13.60;99.90;;;;;;5110312;27;20990;-72
2023/05/15 06:20:09;;;;;;;5.87;4.13;;;13.70;99.90;;;;;;5129191;27;20200;-72
2023/05/15 06:22:35;;;;;;;4.80;4.40;;;13.70;99.90;;;;;;5129049;27;20795;-72
2023/05/15 06:25:04;;;;;;;5.50;4.57;;;13.70;99.90;;;;;;5128815;27;20424;-72
2023/05/15 06:27:30;;;;;;;4.30;3.90;;;13.60;99.90;;;;;;5128823;27;20442;-72
2023/05/15 06:29:55;;;;;;;5.17;4.33;;;13.60;99.90;;;;;;5128815;27;20470;-72
2023/05/15 06:32:21;;;;;;;5.40;4.83;;;13.70;99.90;;;;;;5128072;27;20418;-72
2023/05/15 06:34:47;;;;;;;4.90;4.40;;;13.80;99.90;;;;;;5128820;27;20264;-72
2023/05/15 06:37:12;;;;;;;5.70;5.10;;;13.70;99.90;;;;;;5128640;27;20728;-72
2023/05/15 06:39:38;;;;;;;5.67;4.50;;;13.60;99.90;;;;;;5128390;27;20263;-72
2023/05/15 06:42:04;;;;;;;5.70;4.83;;;13.60;99.90;;;;;;5128321;27;20227;-72
2023/05/15 06:44:30;;;;;;;5.20;4.70;;;13.70;99.90;;;;;;5109969;27;20219;-72
2023/05/15 06:46:56;;;;;;;4.57;4.17;;;13.80;99.90;;;;;;5128300;27;21117;-72
2023/05/15 06:49:23;;;;;;;5.63;4.60;;;13.90;99.90;;;;;;5128642;27;20466;-73
2023/05/15 06:51:49;;;;;;;6.03;5.43;;;13.90;99.90;;;;;;5128483;27;20406;-73
2023/05/15 06:54:14;;;;;;;6.60;4.83;;;14.00;99.90;;;;;;5128320;27;20422;-72
2023/05/15 06:56:40;;;;;;;6.83;4.97;;;14.10;99.90;;;;;;5128531;27;20630;-72
2023/05/15 06:59:05;;;;;;;5.83;5.33;;;14.10;99.90;;;;;;5128888;27;20198;-73
2023/05/15 07:01:31;;;;;;;5.53;5.03;;;14.20;99.90;;;;;;5128894;27;20249;-73
2023/05/15 07:03:57;;;;;;;6.97;6.17;;;14.30;99.90;;;;;;5129090;27;20180;-72
2023/05/15 07:06:22;;;;;;;5.50;4.63;;;14.40;99.90;;;;;;5110404;28;20614;-72
2023/05/15 07:08:48;;;;;;;6.23;5.63;;;14.50;99.90;;;;;;5129078;28;20188;-73
2023/05/15 07:11:14;;;;;;;5.57;5.07;;;14.50;99.90;;;;;;5110778;28;20907;-73
2023/05/15 07:13:39;;;;;;;9.30;5.47;;;14.60;99.90;;;;;;5129487;28;20289;-73
2023/05/15 07:16:05;;;;;;;7.03;5.90;;;14.80;99.90;;;;;;5111130;28;20200;-73
2023/05/15 07:18:30;;;;;;;9.10;6.43;;;15.00;99.90;;;;;;5129174;27;20208;-72
2023/05/15 07:20:56;;;;;;;7.10;6.20;;;15.00;99.90;;;;;;5128968;28;20217;-71
2023/05/15 07:23:22;;;;;;;7.13;6.37;;;15.20;99.90;;;;;;5110099;28;20242;-73
2023/05/15 07:25:47;;;;;;;6.70;5.80;;;15.50;99.90;;;;;;5128476;27;20779;-73
2023/05/15 07:28:13;;;;;;;9.00;6.87;;;15.60;99.90;;;;;;5128816;28;20184;-73
2023/05/15 07:30:39;;;;;;;7.57;6.77;;;15.50;99.90;;;;;;5128290;28;20217;-73
2023/05/15 07:33:04;;;;;;;7.03;5.33;;;15.30;99.90;;;;;;5128466;27;20301;-72
2023/05/15 07:35:30;;;;;;;8.17;6.40;;;15.40;99.90;;;;;;5128565;27;20435;-72
2023/05/15 07:37:56;;;;;;;6.33;5.73;;;15.50;99.90;;;;;;5110058;28;20187;-72
2023/05/15 07:40:21;;;;;;;6.47;5.70;;;15.60;99.90;;;;;;5128466;28;20185;-71
2023/05/15 07:42:47;;;;;;;7.27;6.53;;;15.70;99.90;;;;;;5127859;28;20212;-74
2023/05/15 07:45:12;;;;;;;7.50;6.37;;;15.80;99.90;;;;;;5130703;27;20185;-73
2023/05/15 07:47:43;;;;;;;8.73;6.47;;;15.90;99.90;;;;;;5132058;27;20181;-72
2023/05/15 07:50:09;;;;;;;7.17;5.97;;;15.90;99.90;;;;;;5131901;27;20209;-72
2023/05/15 07:52:34;;;;;;;7.47;6.70;;;15.90;99.90;;;;;;5132099;27;20420;-73
2023/05/15 07:55:00;;;;;;;7.80;6.70;;;15.90;99.90;;;;;;5113771;27;20725;-74
2023/05/15 07:57:26;;;;;;;7.87;7.07;;;15.80;99.90;;;;;;5131924;27;20202;-73
2023/05/15 07:59:51;;;;;;;6.80;5.50;;;15.80;99.90;;;;;;5131991;27;20270;-73
2023/05/15 08:02:17;;;;;;;9.37;6.20;;;15.80;99.90;;;;;;5132111;27;20193;-73
2023/05/15 08:04:42;;;;;;;7.87;6.30;;;16.00;99.90;;;;;;5131726;27;20193;-73
2023/05/15 08:07:08;;;;;;;7.70;6.90;;;15.90;99.90;;;;;;5131740;27;20282;-73
2023/05/15 08:09:33;;;;;;;6.53;5.93;;;16.10;99.90;;;;;;5113451;27;20243;-73
2023/05/15 08:12:22;;;;;;;8.50;6.67;;;16.20;99.90;;;;;;5131782;27;20620;-72
2023/05/15 08:14:55;;;;;;;6.90;6.20;;;16.10;99.90;;;;;;5132064;27;20182;-73
2023/05/15 08:17:22;;;;;;;7.13;6.40;;;16.20;99.90;;;;;;5131537;27;20427;-72
2023/05/15 08:19:48;;;;;;;14.17;7.60;;;16.30;99.90;;;;;;5131418;27;20499;-73
2023/05/15 08:22:14;;;;;;;7.37;6.30;;;16.20;99.90;;;;;;5132142;27;20937;-73
2023/05/15 08:24:39;;;;;;;6.63;5.67;;;16.50;99.90;;;;;;5113390;27;20791;-73
2023/05/15 08:27:07;;;;;;;6.80;6.10;;;16.80;99.90;;;;;;5131811;27;20443;-73
2023/05/15 08:29:33;;;;;;;7.50;5.60;;;16.90;99.90;;;;;;5113053;27;20746;-73
2023/05/15 08:31:58;;;;;;;6.50;5.60;;;17.20;99.90;;;;;;5113250;27;20840;-73
2023/05/15 08:34:24;;;;;;;7.43;6.60;;;17.40;99.90;;;;;;5131472;27;20422;-74
2023/05/15 08:36:51;;;;;;;7.40;6.30;;;17.70;99.90;;;;;;5131298;27;20554;-73
2023/05/15 08:39:17;;;;;;;8.40;6.30;;;18.00;99.90;;;;;;5095623;27;20430;-72
2023/05/15 08:41:56;;;;;;;8.30;7.00;;;18.00;99.90;;;;;;5112339;27;20841;-73
2023/05/15 08:44:22;;;;;;;10.50;8.50;;;17.90;99.90;;;;;;5131076;27;20186;-72
2023/05/15 08:46:48;;;;;;;11.67;8.47;;;17.80;99.90;;;;;;5130941;27;21052;-72
2023/05/15 08:49:37;;;;;;;12.57;8.70;;;17.90;99.90;;;;;;5130642;27;20461;-72
2023/05/15 08:52:04;;;;;;;12.63;9.30;;;18.20;99.90;;;;;;5111641;27;20428;-72
2023/05/15 08:54:30;;;;;;;17.97;9.80;;;18.40;99.90;;;;;;5130397;27;20798;-73
2023/05/15 08:56:56;;;;;;;17.40;9.77;;;18.60;99.90;;;;;;5129162;27;20431;-73
2023/05/15 08:59:22;;;;;;;12.17;9.43;;;18.80;99.90;;;;;;5094406;27;20484;-73
2023/05/15 09:01:48;;;;;;;12.10;9.70;;;18.90;99.90;;;;;;5111569;27;20477;-74
2023/05/15 09:04:14;;;;;;;10.00;8.77;;;19.00;99.90;;;;;;5094498;27;20198;-72
2023/05/15 09:06:40;;;;;;;9.87;8.80;;;19.30;99.90;;;;;;5130027;27;20807;-73
2023/05/15 09:09:08;;;;;;;11.87;8.47;;;19.30;99.90;;;;;;5129937;27;20421;-74
2023/05/15 09:11:34;;;;;;;16.07;10.50;;;19.60;99.90;;;;;;5129829;27;20423;-73
2023/05/15 09:14:00;;;;;;;13.47;11.50;;;19.70;99.90;;;;;;5129917;27;20471;-72
2023/05/15 09:16:26;;;;;;;14.20;11.13;;;19.80;99.90;;;;;;5111354;27;20811;-73
2023/05/15 09:18:53;;;;;;;15.10;10.67;;;20.00;99.90;;;;;;5129531;27;20179;-73
2023/05/15 09:21:26;;;;;;;11.53;9.57;;;20.20;99.90;;;;;;5129952;27;20411;-73
2023/05/15 09:23:53;;;;;;;11.20;8.57;;;20.30;99.90;;;;;;5129821;27;20929;-72
2023/05/15 09:26:18;;;;;;;8.40;7.40;;;20.40;99.90;;;;;;5129673;27;20529;-73
2023/05/15 09:28:44;;;;;;;8.80;7.87;;;20.60;99.90;;;;;;5129676;27;21232;-73
2023/05/15 09:31:10;;;;;;;10.30;7.60;;;20.80;99.90;;;;;;5129433;27;20251;-73
2023/05/15 09:33:38;;;;;;;7.33;6.63;;;21.20;99.90;;;;;;5077205;27;20458;-73
2023/05/15 09:36:05;;;;;;;8.20;6.30;;;21.30;98.20;;;;;;5129497;27;20535;-73
2023/05/15 09:38:42;;;;;;;9.70;7.43;;;20.90;97.30;;;;;;5110727;27;20425;-72
2023/05/15 09:41:08;;;;;;;10.23;7.90;;;20.70;97.70;;;;;;5129336;27;20438;-73
2023/05/15 09:43:36;;;;;;;6.97;6.20;;;20.50;99.70;;;;;;5129682;27;20414;-73
2023/05/15 09:46:01;;;;;;;8.40;6.40;;;20.30;99.90;;;;;;5129360;27;20498;-73
2023/05/15 09:48:28;;;;;;;8.67;7.60;;;20.00;99.90;;;;;;5129485;27;20458;-73
2023/05/15 09:50:55;;;;;;;9.30;6.70;;;19.60;99.20;;;;;;5110467;27;20223;-74
2023/05/15 09:53:21;;;;;;;8.67;7.00;;;19.30;99.90;;;;;;5129342;27;20850;-72
2023/05/15 09:55:48;;;;;;;7.30;6.60;;;19.20;99.90;;;;;;5129468;27;20458;-73
2023/05/15 09:58:16;;;;;;;6.93;6.27;;;19.70;99.90;;;;;;5110456;27;20418;-73
2023/05/15 10:00:43;;;;;;;7.90;6.07;;;19.70;99.50;;;;;;5110383;27;20476;-72
2023/05/15 10:03:10;;;;;;;6.17;5.40;;;19.90;99.90;;;;;;5112344;27;20429;-73
2023/05/15 10:05:36;;;;;;;9.07;5.23;;;19.90;99.40;;;;;;5129239;27;20614;-73
2023/05/15 10:08:02;;;;;;;5.30;4.80;;;19.60;99.70;;;;;;5129177;27;20499;-73
2023/05/15 10:10:29;;;;;;;5.43;4.93;;;19.20;99.80;;;;;;5129094;27;20929;-73
2023/05/15 10:12:58;;;;;;;4.93;4.40;;;19.10;99.00;;;;;;5129154;27;20422;-73
2023/05/15 10:15:24;;;;;;;6.87;4.80;;;19.00;96.90;;;;;;5076971;27;20977;-74
2023/05/15 10:17:51;;;;;;;6.13;4.70;;;19.40;98.70;;;;;;5110387;27;20876;-73
2023/05/15 10:20:20;;;;;;;7.70;5.17;;;19.90;99.90;;;;;;5128968;27;20414;-72
2023/05/15 10:22:51;;;;;;;5.07;4.67;;;20.70;95.10;;;;;;5110717;27;20435;-73
2023/05/15 10:25:29;;;;;;;6.67;5.13;;;21.30;95.90;;;;;;5128775;27;20420;-73
2023/05/15 10:27:55;;;;;;;4.60;4.20;;;22.10;94.50;;;;;;5129009;27;20982;-72
2023/05/15 10:30:22;;;;;;;6.50;4.97;;;22.30;93.80;;;;;;5129189;27;20468;-74
2023/05/15 10:32:48;;;;;;;6.87;5.37;;;21.70;93.30;;;;;;5129388;27;20413;-73
2023/05/15 10:35:15;;;;;;;4.97;4.50;;;21.20;99.90;;;;;;5129422;27;20412;-73
2023/05/15 10:37:42;;;;;;;5.57;5.07;;;20.50;99.90;;;;;;5110509;27;20444;-72
2023/05/15 10:40:09;;;;;;;5.37;4.87;;;19.80;99.90;;;;;;5129041;27;20414;-74
2023/05/15 10:42:36;;;;;;;8.50;6.37;;;19.30;99.90;;;;;;5128227;27;20457;-71
2023/05/15 10:45:04;;;;;;;11.00;7.17;;;18.50;99.90;;;;;;5110214;27;20417;-74
2023/05/15 10:47:32;;;;;;;10.77;6.63;;;17.80;99.90;;;;;;5129164;27;20969;-71
2023/05/15 10:49:57;;;;;;;13.73;6.67;;;17.00;99.90;;;;;;5129022;27;20465;-71
2023/05/15 10:52:23;;;;;;;8.13;6.60;;;16.40;99.90;;;;;;5129139;27;20429;-71
2023/05/15 10:54:51;;;;;;;7.40;5.80;;;16.10;99.90;;;;;;5110406;28;20184;-72
2023/05/15 10:57:17;;;;;;;10.97;5.20;;;16.00;99.90;;;;;;5110702;27;20453;-71
2023/05/15 10:59:43;;;;;;;7.60;5.17;;;16.10;99.90;;;;;;5129173;27;21001;-71
2023/05/15 11:02:29;;;;;;;6.00;5.50;;;16.10;99.90;;;;;;5110745;27;20213;-71
2023/05/15 11:05:02;;;;;;;5.20;4.80;;;16.20;99.90;;;;;;5110551;28;20450;-73
2023/05/15 11:07:28;;;;;;;5.70;5.10;;;16.00;99.90;;;;;;5110336;28;20477;-71
2023/05/15 11:09:55;;;;;;;5.93;5.03;;;15.90;99.90;;;;;;5128982;27;20464;-71
2023/05/15 11:12:21;;;;;;;6.53;5.93;;;16.10;99.90;;;;;;5129055;28;20406;-71
2023/05/15 11:14:56;;;;;;;6.67;5.97;;;16.10;99.90;;;;;;5129173;28;20444;-72
2023/05/15 11:17:25;;;;;;;6.33;5.57;;;16.60;99.90;;;;;;5129250;27;20551;-72
2023/05/15 11:19:51;;;;;;;8.37;6.10;;;17.50;99.90;;;;;;5131961;27;20408;-71
2023/05/15 11:22:30;;;;;;;6.70;5.40;;;18.10;99.90;;;;;;5133690;27;20407;-71
2023/05/15 11:25:11;;;;;;;7.77;5.70;;;18.00;99.90;;;;;;5133780;27;20188;-72
2023/05/15 11:27:41;;;;;;;9.30;6.80;;;17.90;99.90;;;;;;5115265;27;20970;-72
2023/05/15 11:30:10;;;;;;;7.73;6.50;;;17.80;99.90;;;;;;5133739;27;20500;-70
2023/05/15 11:32:47;;;;;;;9.33;6.87;;;17.50;99.90;;;;;;5133636;27;20854;-71
2023/05/15 11:35:20;;;;;;;10.80;5.80;;;16.90;99.90;;;;;;5133737;27;20770;-70
2023/05/15 11:37:49;;;;;;;5.80;4.40;;;16.80;99.90;;;;;;5114883;27;21016;-71
2023/05/15 11:40:23;;;;;;;6.70;4.47;;;17.10;99.90;;;;;;5133664;27;20502;-71
2023/05/15 11:43:18;;;;;;;6.70;4.80;;;17.30;99.90;;;;;;5133460;27;20865;-72
2023/05/15 11:45:53;;;;;;;4.97;4.47;;;17.60;99.90;;;;;;5133365;27;20960;-72
2023/05/15 11:48:19;;;;;;;10.40;4.80;;;17.70;99.90;;;;;;5114705;27;20485;-72
2023/05/15 11:50:45;;;;;;;4.90;4.50;;;17.80;99.90;;;;;;5132769;27;20458;-72
2023/05/15 11:53:11;;;;;;;9.60;4.60;;;17.80;99.90;;;;;;5132668;27;20418;-71
2023/05/15 11:55:39;;;;;;;4.90;4.50;;;18.00;99.90;;;;;;5133044;27;20948;-72
2023/05/15 11:58:09;;;;;;;4.57;4.17;;;18.10;99.90;;;;;;5132772;27;20407;-72
2023/05/15 12:00:35;;;;;;;6.80;3.83;;;18.40;99.90;;;;;;5132784;27;20497;-72
2023/05/15 12:03:02;;;;;;;6.07;3.60;;;18.60;99.90;;;;;;5133102;27;21004;-75
2023/05/15 12:05:29;;;;;;;6.30;3.50;;;18.60;99.90;;;;;;5133341;27;21039;-72
2023/05/15 12:07:55;;;;;;;5.77;3.50;;;18.20;99.90;;;;;;5133151;27;20498;-72
2023/05/15 12:10:21;;;;;;;3.50;3.20;;;18.50;99.90;;;;;;5132941;27;20547;-72
2023/05/15 12:12:47;;;;;;;3.80;3.40;;;19.00;99.90;;;;;;5132577;27;20181;-72
2023/05/15 12:15:15;;;;;;;4.00;3.57;;;19.20;99.90;;;;;;5132067;27;20192;-72
2023/05/15 12:17:42;;;;;;;6.97;3.47;;;19.30;99.90;;;;;;5131990;27;20426;-72
2023/05/15 12:20:15;;;;;;;3.60;3.30;;;19.30;99.90;;;;;;5131814;27;20423;-72
2023/05/15 12:22:41;;;;;;;3.87;3.57;;;19.20;99.90;;;;;;5132139;27;20425;-72
2023/05/15 12:25:08;;;;;;;3.13;2.93;;;19.20;99.90;;;;;;5131921;27;21091;-73
2023/05/15 12:27:35;;;;;;;5.30;3.90;;;19.30;99.90;;;;;;5113212;27;20425;-72
2023/05/15 12:30:01;;;;;;;4.70;3.30;;;19.40;99.90;;;;;;5131279;27;20447;-72
2023/05/15 12:32:30;;;;;;;3.10;2.73;;;20.10;99.90;;;;;;5131080;27;20422;-72
2023/05/15 12:34:55;;;;;;;3.53;3.20;;;20.80;98.60;;;;;;5112979;27;20477;-73
2023/05/15 12:37:21;;;;;;;3.17;2.83;;;21.00;94.90;;;;;;5131559;27;20429;-74
2023/05/15 12:39:52;;;;;;;3.47;3.17;;;21.30;93.30;;;;;;5131606;27;20182;-73
2023/05/15 12:42:18;;;;;;;3.37;3.00;;;21.00;97.40;;;;;;5112633;27;20207;-73
2023/05/15 12:44:43;;;;;;;4.77;3.17;;;21.20;98.10;;;;;;5131468;27;20409;-73
2023/05/15 12:47:12;;;;;;;2.40;2.20;;;21.50;98.10;;;;;;5131678;27;20214;-74